createdAt,value
2023-01-15T00:01:24.722Z,97639.88
2023-01-15T00:06:29.471Z,97615.47
2023-01-15T00:11:35.506Z,97609.22
2023-01-15T00:16:41.431Z,97601.13
2023-01-15T00:21:45.776Z,97612.31
2023-01-15T00:27:09.071Z,97592.72
2023-01-15T00:32:13.513Z,97582.22
2023-01-15T00:37:18.002Z,97576.41
2023-01-15T00:42:23.547Z,97565.94
2023-01-15T00:47:27.960Z,97564.28
2023-01-15T00:52:32.424Z,97560.09
2023-01-15T00:57:38.003Z,97531.50
2023-01-15T01:02:42.675Z,97521.97
2023-01-15T01:07:47.375Z,97493.72
2023-01-15T01:12:53.539Z,97491.47
2023-01-15T01:17:57.908Z,97490.00
2023-01-15T01:23:03.943Z,97484.50
2023-01-15T01:28:09.504Z,97481.94
2023-01-15T01:33:13.798Z,97464.16
2023-01-15T01:38:18.267Z,97463.22
2023-01-15T01:43:26.592Z,97457.06
2023-01-15T01:48:34.654Z,97460.78
2023-01-15T01:53:39.954Z,97444.47
2023-01-15T01:58:51.941Z,97435.41
2023-01-15T02:03:56.670Z,97438.00
2023-01-15T02:09:01.596Z,97430.09
2023-01-15T02:14:15.759Z,97421.69
2023-01-15T02:19:39.601Z,97405.69
2023-01-15T02:24:56.419Z,97399.69
2023-01-15T02:30:11.447Z,97413.63
2023-01-15T02:35:32.376Z,97407.28
2023-01-15T02:40:39.402Z,97400.84
2023-01-15T02:45:50.189Z,97401.00
2023-01-15T02:51:02.993Z,97385.63
2023-01-15T02:56:14.515Z,97372.03
2023-01-15T03:01:33.116Z,97362.03
2023-01-15T03:06:44.659Z,97351.34
2023-01-15T03:12:01.931Z,97353.13
2023-01-15T03:17:19.553Z,97344.88
2023-01-15T03:22:31.599Z,97341.31
2023-01-15T03:27:36.344Z,97351.81
2023-01-15T03:32:43.796Z,97346.13
2023-01-15T03:37:48.368Z,97330.25
2023-01-15T03:43:16.257Z,97333.50
2023-01-15T03:48:32.148Z,97335.88
2023-01-15T03:53:45.083Z,97326.66
2023-01-15T03:58:56.962Z,97306.75
2023-01-15T04:04:11.471Z,97317.91
2023-01-15T04:09:16.942Z,97321.59
2023-01-15T04:14:22.871Z,97309.53
2023-01-15T04:19:32.630Z,97303.31
2023-01-15T04:24:40.530Z,97301.50
2023-01-15T04:29:44.973Z,97306.94
2023-01-15T04:34:51.772Z,97304.44
2023-01-15T04:39:56.517Z,97299.22
2023-01-15T04:45:00.791Z,97296.56
2023-01-15T04:50:07.614Z,97284.97
2023-01-15T04:55:12.841Z,97282.16
2023-01-15T05:00:18.698Z,97271.69
2023-01-15T05:05:24.543Z,97258.00
2023-01-15T05:10:28.732Z,97245.50
2023-01-15T05:15:33.357Z,97260.44
2023-01-15T05:20:39.591Z,97257.16
2023-01-15T05:25:44.085Z,97233.63
2023-01-15T05:30:48.557Z,97207.84
2023-01-15T05:35:54.354Z,97205.88
2023-01-15T05:40:58.727Z,97214.66
2023-01-15T05:46:03.596Z,97212.59
2023-01-15T05:51:09.797Z,97212.13
2023-01-15T05:56:14.542Z,97208.53
2023-01-15T06:01:19.459Z,97216.97
2023-01-15T06:06:25.269Z,97218.13
2023-01-15T06:11:29.846Z,97218.56
2023-01-15T06:16:34.986Z,97219.38
2023-01-15T06:21:41.218Z,97223.41
2023-01-15T06:26:45.653Z,97214.66
2023-01-15T06:31:50.270Z,97212.88
2023-01-15T06:36:56.130Z,97226.34
2023-01-15T06:42:18.012Z,97224.28
2023-01-15T06:47:23.867Z,97224.47
2023-01-15T06:52:31.822Z,97227.88
2023-01-15T06:57:38.962Z,97236.81
2023-01-15T07:02:43.389Z,97236.34
2023-01-15T07:07:48.987Z,97234.75
2023-01-15T07:12:53.475Z,97230.38
2023-01-15T07:17:58.543Z,97220.69
2023-01-15T07:23:04.397Z,97230.97
2023-01-15T07:28:09.468Z,97233.56
2023-01-15T07:33:14.666Z,97223.34
2023-01-15T07:38:20.045Z,97217.91
2023-01-15T07:43:56.365Z,97227.66
2023-01-15T07:49:17.667Z,97225.22
2023-01-15T07:54:23.551Z,97213.75
2023-01-15T07:59:28.299Z,97212.78
2023-01-15T08:04:32.776Z,97213.47
2023-01-15T08:09:38.591Z,97205.72
2023-01-15T08:15:00.206Z,97206.16
2023-01-15T08:20:07.943Z,97202.41
2023-01-15T08:25:16.490Z,97200.25
2023-01-15T08:30:23.728Z,97211.28
2023-01-15T08:35:28.172Z,97194.22
2023-01-15T08:40:33.804Z,97184.03
2023-01-15T08:45:38.253Z,97193.03
2023-01-15T08:50:42.633Z,97188.41
2023-01-15T08:55:49.156Z,97185.09
2023-01-15T09:00:53.737Z,97188.13
2023-01-15T09:05:59.986Z,97188.41
2023-01-15T09:11:09.829Z,97195.00
2023-01-15T09:16:17.353Z,97196.53
2023-01-15T09:21:21.807Z,97185.44
2023-01-15T09:26:34.395Z,97186.06
2023-01-15T09:31:38.853Z,97176.06
2023-01-15T09:36:43.775Z,97168.88
2023-01-15T09:42:16.202Z,97159.88
2023-01-15T09:47:28.611Z,97151.91
2023-01-15T09:52:56.638Z,97159.50
2023-01-15T09:58:06.545Z,97154.41
2023-01-15T10:03:30.163Z,97152.53
2023-01-15T10:08:40.273Z,97135.16
2023-01-15T10:13:50.057Z,97128.28
2023-01-15T10:18:56.272Z,97105.59
2023-01-15T10:24:08.137Z,97109.50
2023-01-15T10:29:25.072Z,97107.53
2023-01-15T10:35:11.357Z,97105.94
2023-01-15T10:40:35.709Z,97094.22
2023-01-15T10:45:47.977Z,97085.38
2023-01-15T10:50:52.732Z,97085.63
2023-01-15T10:56:04.069Z,97068.75
2023-01-15T11:01:14.396Z,97065.88
2023-01-15T11:06:22.366Z,97067.16
2023-01-15T11:11:51.960Z,97046.84
2023-01-15T11:17:15.756Z,97041.47
2023-01-15T11:22:21.539Z,97036.16
2023-01-15T11:27:31.767Z,97029.59
2023-01-15T11:32:39.467Z,97016.66
2023-01-15T11:37:43.960Z,97020.50
2023-01-15T11:43:07.255Z,97027.47
2023-01-15T11:48:37.202Z,97032.28
2023-01-15T11:53:47.789Z,97031.03
2023-01-15T11:58:56.482Z,97026.66
2023-01-15T12:04:06.485Z,97020.22
2023-01-15T12:09:24.660Z,97018.69
2023-01-15T12:14:46.837Z,97005.72
2023-01-15T12:20:04.164Z,97014.16
2023-01-15T12:25:39.715Z,97003.78
2023-01-15T12:30:57.115Z,97007.19
2023-01-15T12:36:10.265Z,96996.00
2023-01-15T12:41:20.821Z,96985.63
2023-01-15T12:46:30.620Z,96991.63
2023-01-15T12:51:50.361Z,96979.28
2023-01-15T12:57:02.935Z,96986.44
2023-01-15T13:02:20.333Z,96975.44
2023-01-15T13:07:35.357Z,96986.53
2023-01-15T13:12:39.648Z,96981.38
2023-01-15T13:18:00.861Z,96980.38
2023-01-15T13:23:18.207Z,96998.50
2023-01-15T13:28:40.312Z,97010.75
2023-01-15T13:33:49.225Z,97022.09
2023-01-15T13:38:58.349Z,97018.69
2023-01-15T13:44:04.006Z,97004.56
2023-01-15T13:49:19.000Z,97000.81
2023-01-15T13:54:30.725Z,97011.91
2023-01-15T13:59:44.454Z,97003.66
2023-01-15T14:04:48.994Z,97013.13
2023-01-15T14:09:55.069Z,97004.28
2023-01-15T14:15:28.922Z,96997.00
2023-01-15T14:20:44.486Z,96990.75
2023-01-15T14:26:03.760Z,97000.47
2023-01-15T14:31:24.465Z,97004.81
2023-01-15T14:36:34.533Z,96990.75
2023-01-15T14:41:54.862Z,96992.22
2023-01-15T14:47:03.684Z,96986.59
2023-01-15T14:52:08.206Z,96994.44
2023-01-15T14:57:16.968Z,97003.28
2023-01-15T15:02:31.617Z,96986.13
2023-01-15T15:07:43.620Z,97001.56
2023-01-15T15:12:58.216Z,97009.59
2023-01-15T15:18:09.738Z,97015.06
2023-01-15T15:23:20.222Z,97024.84
2023-01-15T15:28:26.076Z,97039.59
2023-01-15T15:33:38.282Z,97078.31
2023-01-15T15:38:54.776Z,97083.66
2023-01-15T15:44:17.952Z,97076.13
2023-01-15T15:49:22.828Z,97071.59
2023-01-15T15:54:28.389Z,97086.22
2023-01-15T15:59:35.597Z,97096.66
2023-01-15T16:04:45.110Z,97112.78
2023-01-15T16:09:52.612Z,97121.03
2023-01-15T16:14:59.412Z,97125.22
2023-01-15T16:20:04.085Z,97136.38
2023-01-15T16:25:25.022Z,97152.59
2023-01-15T16:30:32.268Z,97177.81
2023-01-15T16:35:38.124Z,97183.97
2023-01-15T16:40:47.281Z,97208.53
2023-01-15T16:46:06.578Z,97220.19
2023-01-15T16:51:32.248Z,97220.66
2023-01-15T16:56:54.657Z,97221.50
2023-01-15T17:02:06.460Z,97244.44
2023-01-15T17:07:20.844Z,97239.28
2023-01-15T17:12:31.054Z,97250.88
2023-01-15T17:17:36.729Z,97265.25
2023-01-15T17:22:45.423Z,97273.31
2023-01-15T17:27:49.884Z,97282.84
2023-01-15T17:32:56.080Z,97277.63
2023-01-15T17:38:00.770Z,97296.66
2023-01-15T17:43:05.417Z,97292.44
2023-01-15T17:48:13.408Z,97297.59
2023-01-15T17:53:18.145Z,97304.53
2023-01-15T17:58:40.402Z,97310.63
2023-01-15T18:04:08.604Z,97329.97
2023-01-15T18:09:13.915Z,97322.38
2023-01-15T18:14:18.667Z,97319.00
2023-01-15T18:19:24.462Z,97328.06
2023-01-15T18:24:29.504Z,97325.16
2023-01-15T18:29:38.550Z,97327.75
2023-01-15T18:34:44.674Z,97332.44
2023-01-15T18:39:53.232Z,97347.16
2023-01-15T18:45:15.442Z,97333.44
2023-01-15T18:50:21.309Z,97331.03
2023-01-15T18:55:26.730Z,97338.09
2023-01-15T19:00:31.434Z,97339.94
2023-01-15T19:05:37.629Z,97350.53
2023-01-15T19:10:42.199Z,97347.50
2023-01-15T19:16:04.047Z,97334.75
2023-01-15T19:21:13.174Z,97356.38
2023-01-15T19:26:18.190Z,97349.94
2023-01-15T19:31:39.036Z,97341.56
2023-01-15T19:36:45.046Z,97339.94
2023-01-15T19:42:07.081Z,97341.66
2023-01-15T19:47:32.341Z,97351.16
2023-01-15T19:52:38.736Z,97358.25
2023-01-15T19:57:46.473Z,97343.41
2023-01-15T20:02:50.972Z,97345.97
2023-01-15T20:07:56.979Z,97361.44
2023-01-15T20:13:19.067Z,97352.09
2023-01-15T20:18:23.923Z,97363.81
2023-01-15T20:23:29.757Z,97352.53
2023-01-15T20:28:36.044Z,97354.28
2023-01-15T20:33:40.485Z,97340.41
2023-01-15T20:38:46.299Z,97349.41
2023-01-15T20:44:08.068Z,97340.56
2023-01-15T20:49:28.279Z,97345.06
2023-01-15T20:54:34.097Z,97350.31
2023-01-15T20:59:38.585Z,97355.19
2023-01-15T21:04:42.990Z,97357.94
2023-01-15T21:09:48.716Z,97359.72
2023-01-15T21:14:53.455Z,97344.13
2023-01-15T21:19:58.046Z,97355.53
2023-01-15T21:25:03.937Z,97352.13
2023-01-15T21:30:10.838Z,97360.03
2023-01-15T21:35:15.253Z,97358.78
2023-01-15T21:40:21.130Z,97350.69
2023-01-15T21:45:26.380Z,97351.00
2023-01-15T21:50:30.570Z,97346.78
2023-01-15T21:55:36.417Z,97350.03
2023-01-15T22:00:40.951Z,97347.59
2023-01-15T22:05:46.555Z,97343.56
2023-01-15T22:10:53.216Z,97355.50
2023-01-15T22:15:57.421Z,97349.00
2023-01-15T22:21:03.871Z,97347.41
2023-01-15T22:26:18.207Z,97343.84
2023-01-15T22:31:23.130Z,97332.22
2023-01-15T22:36:27.596Z,97333.03
2023-01-15T22:41:50.619Z,97340.94
2023-01-15T22:46:55.029Z,97342.84
2023-01-15T22:51:59.841Z,97344.16
2023-01-15T22:57:06.713Z,97352.72
2023-01-15T23:02:11.413Z,97354.28
2023-01-15T23:07:15.543Z,97345.38
2023-01-15T23:12:21.485Z,97342.16
2023-01-15T23:17:26.359Z,97331.41
2023-01-15T23:22:31.489Z,97333.34
2023-01-15T23:27:37.525Z,97329.47
2023-01-15T23:32:42.553Z,97321.56
2023-01-15T23:37:47.022Z,97325.25
2023-01-15T23:43:25.594Z,97327.03
2023-01-15T23:48:29.757Z,97329.56
2023-01-15T23:53:34.803Z,97322.25
2023-01-15T23:58:40.561Z,97318.97
